Time;durP1;ratioP1;P1;durP2;ratioP2;P2;SDS_P1;SDS_P2;PMS_P1;PMS_P2;Temp;Humidity;BMP_temperature;BMP_pressure;BME280_temperature;BME280_humidity;BME280_pressure;Samples;Min_cycle;Max_cycle;Signal;HPM_P1;HPM_P2
2021/07/30 00:01:10;;;;;;;;;4.20;4.20;;;;;31.05;57.05;98391.84;5054087;28;8854;-69
2021/07/30 00:03:39;;;;;;;;;3.80;3.80;;;;;31.04;57.19;98393.78;5053903;28;8838;-69
2021/07/30 00:06:26;;;;;;;;;4.80;4.80;;;;;31.04;56.93;98382.13;5053981;28;8874;-69
2021/07/30 00:08:54;;;;;;;;;3.20;3.20;;;;;31.11;56.78;98401.09;5053960;28;8855;-69
2021/07/30 00:11:23;;;;;;;;;6.20;6.20;;;;;31.13;56.84;98393.25;5052649;28;8851;-69
2021/07/30 00:13:51;;;;;;;;;3.40;3.40;;;;;31.02;57.14;98382.53;5053871;28;8928;-69
2021/07/30 00:16:20;;;;;;;;;5.00;5.00;;;;;31.16;56.59;98397.91;5053828;28;8847;-69
2021/07/30 00:18:49;;;;;;;;;5.00;4.40;;;;;31.19;56.83;98393.59;5053699;28;8850;-68
2021/07/30 00:21:17;;;;;;;;;4.80;4.80;;;;;31.20;57.07;98403.31;5054225;28;8932;-69
2021/07/30 00:23:46;;;;;;;;;4.40;4.40;;;;;31.21;56.95;98396.66;5053625;28;8912;-69
2021/07/30 00:26:14;;;;;;;;;5.80;5.80;;;;;31.22;56.65;98396.25;5053843;28;8953;-68
2021/07/30 00:28:43;;;;;;;;;4.00;4.00;;;;;31.24;56.72;98398.56;5053522;28;8843;-69
2021/07/30 00:31:11;;;;;;;;;4.20;4.20;;;;;31.19;56.49;98388.16;5053505;28;8965;-69
2021/07/30 00:33:39;;;;;;;;;3.40;3.40;;;;;31.09;56.71;98373.47;5053410;28;8834;-69
2021/07/30 00:36:08;;;;;;;;;4.40;4.40;;;;;31.25;56.62;98400.09;5053257;28;8920;-69
2021/07/30 00:38:36;;;;;;;;;3.80;3.80;;;;;31.28;56.50;98391.88;5053263;28;8866;-69
2021/07/30 00:41:05;;;;;;;;;2.80;2.80;;;;;31.28;56.75;98393.81;5053268;28;9236;-69
2021/07/30 00:43:33;;;;;;;;;0.40;0.40;;;;;31.29;56.61;98396.13;5035682;28;8858;-69
2021/07/30 00:46:02;;;;;;;;;4.00;4.00;;;;;31.32;56.68;98397.25;5053169;28;8931;-69
2021/07/30 00:48:31;;;;;;;;;3.40;3.40;;;;;31.32;56.61;98392.59;5050657;28;9702;-71
2021/07/30 00:51:01;;;;;;;;;3.60;3.60;;;;;31.24;56.58;98374.03;5050669;28;8855;-71
2021/07/30 00:53:30;;;;;;;;;4.40;3.60;;;;;31.29;56.28;98373.56;5052471;28;8928;-71
2021/07/30 00:55:59;;;;;;;;;3.80;3.80;;;;;31.21;56.22;98358.50;5052768;28;8858;-71
2021/07/30 00:58:30;;;;;;;;;3.40;3.40;;;;;31.19;55.94;98350.00;5052580;28;8847;-71
2021/07/30 01:01:00;;;;;;;;;5.20;5.20;;;;;31.48;55.77;98402.84;5052090;28;8862;-72
2021/07/30 01:03:28;;;;;;;;;4.20;4.20;;;;;31.52;55.72;98406.28;5051969;28;8854;-72
2021/07/30 01:05:57;;;;;;;;;4.20;4.20;;;;;31.56;55.76;98411.66;5052918;28;8845;-71
2021/07/30 01:08:25;;;;;;;;;5.00;5.00;;;;;31.50;55.80;98400.47;5052535;28;8874;-71
2021/07/30 01:10:54;;;;;;;;;5.20;5.20;;;;;31.62;55.37;98416.25;5052344;28;8929;-71
2021/07/30 01:13:23;;;;;;;;;3.80;3.80;;;;;31.63;55.66;98420.50;5051726;28;9583;-71
2021/07/30 01:15:51;;;;;;;;;1.40;1.40;;;;;31.63;55.23;98417.78;5052274;28;9615;-72
2021/07/30 01:18:20;;;;;;;;;4.00;4.00;;;;;31.54;55.39;98403.91;5048835;28;8835;-71
2021/07/30 01:21:06;;;;;;;;;3.80;3.80;;;;;31.59;55.35;98408.88;5052183;28;8835;-71
2021/07/30 01:23:35;;;;;;;;;4.00;4.00;;;;;31.67;55.25;98413.03;5049233;28;8847;-71
2021/07/30 01:26:03;;;;;;;;;4.40;4.40;;;;;31.71;55.20;98421.97;5051846;28;8843;-71
2021/07/30 01:28:32;;;;;;;;;4.40;4.40;;;;;31.71;55.08;98418.47;5052295;28;8981;-71
2021/07/30 01:31:04;;;;;;;;;3.20;3.20;;;;;31.55;55.19;98393.78;5049844;28;8855;-68
2021/07/30 01:33:32;;;;;;;;;2.60;2.60;;;;;31.71;54.82;98405.59;5050814;28;8859;-68
2021/07/30 01:36:01;;;;;;;;;3.00;3.00;;;;;31.69;54.98;98405.25;5051234;28;8827;-69
2021/07/30 01:38:30;;;;;;;;;4.60;4.60;;;;;31.73;55.18;98405.19;5052066;28;8842;-69
2021/07/30 01:43:42;;;;;;;;;3.20;3.00;;;;;31.77;54.64;98405.88;5051687;28;9560;-70
2021/07/30 01:46:11;;;;;;;;;3.40;3.40;;;;;31.76;54.50;98405.13;5051630;28;8843;-68
2021/07/30 01:48:40;;;;;;;;;4.00;4.00;;;;;31.82;54.66;98423.72;5051465;28;8892;-70
2021/07/30 01:51:09;;;;;;;;;2.20;2.20;;;;;31.78;54.90;98421.84;5051416;28;8944;-68
2021/07/30 01:53:37;;;;;;;;;3.00;3.00;;;;;31.79;54.75;98430.78;5049994;28;8854;-69
2021/07/30 01:56:07;;;;;;;;;2.40;1.60;;;;;31.77;54.44;98433.94;5050226;28;8858;-68
2021/07/30 01:58:36;;;;;;;;;4.40;4.40;;;;;31.68;54.41;98422.00;5050254;28;8933;-71
2021/07/30 02:01:05;;;;;;;;;4.60;4.60;;;;;31.67;54.54;98426.66;5050255;28;8858;-69
2021/07/30 02:03:33;;;;;;;;;3.60;3.60;;;;;31.61;54.25;98419.38;5051079;28;8849;-70
2021/07/30 02:06:09;;;;;;;;;3.00;3.00;;;;;31.66;54.43;98421.63;5051456;28;8867;-70
2021/07/30 02:08:38;;;;;;;;;2.60;2.60;;;;;31.64;54.25;98416.59;5051222;28;8847;-71
2021/07/30 02:11:13;;;;;;;;;3.20;3.20;;;;;31.70;54.24;98419.66;5051021;28;8862;-75
2021/07/30 02:16:24;;;;;;;;;3.20;3.20;;;;;31.79;53.63;98412.47;5061415;28;8845;-79
2021/07/30 02:18:53;;;;;;;;;3.20;3.20;;;;;31.78;54.14;98400.00;5050080;28;8835;-68
2021/07/30 02:21:21;;;;;;;;;4.00;4.00;;;;;32.01;53.62;98426.50;5049111;28;8896;-68
2021/07/30 02:23:50;;;;;;;;;3.40;3.40;;;;;32.01;53.69;98421.03;5048846;28;8826;-68
2021/07/30 02:26:18;;;;;;;;;3.00;3.00;;;;;32.14;53.42;98428.59;5050496;28;8827;-68
2021/07/30 02:28:47;;;;;;;;;3.00;3.00;;;;;32.05;53.35;98404.59;5048598;28;8969;-70
2021/07/30 02:31:16;;;;;;;;;2.60;2.60;;;;;32.25;53.67;98429.22;5066270;28;8892;-68
2021/07/30 02:33:44;;;;;;;;;3.20;3.20;;;;;32.30;53.22;98421.28;5050232;28;8835;-67
2021/07/30 02:36:13;;;;;;;;;2.60;2.60;;;;;32.32;52.98;98409.97;5048923;28;8945;-67
2021/07/30 02:38:41;;;;;;;;;1.00;1.00;;;;;32.39;52.83;98421.50;5049793;28;8826;-68
2021/07/30 02:41:10;;;;;;;;;2.80;2.80;;;;;32.41;53.05;98415.63;5031556;28;8896;-67
2021/07/30 02:43:39;;;;;;;;;2.00;2.00;;;;;32.43;53.02;98418.72;5050340;28;8888;-68
2021/07/30 02:46:08;;;;;;;;;3.00;3.00;;;;;32.40;53.04;98414.09;5050129;28;8881;-67
2021/07/30 02:48:37;;;;;;;;;3.80;3.80;;;;;32.47;52.50;98415.91;5051437;28;8944;-68
2021/07/30 02:51:06;;;;;;;;;4.40;4.40;;;;;32.47;52.48;98415.91;5054795;28;8857;-68
2021/07/30 02:53:35;;;;;;;;;2.00;2.00;;;;;32.30;52.07;98385.81;5052011;28;8827;-68
2021/07/30 02:56:03;;;;;;;;;3.60;3.60;;;;;32.53;52.59;98412.22;5053863;28;8850;-69
2021/07/30 02:58:32;;;;;;;;;2.60;2.60;;;;;32.57;52.27;98409.44;5054283;28;8838;-69
2021/07/30 03:01:01;;;;;;;;;3.00;3.00;;;;;32.54;51.18;98397.38;5054711;28;8850;-69
2021/07/30 03:03:52;;;;;;;;;3.40;3.40;;;;;32.63;52.28;98413.19;5034980;28;8833;-69
2021/07/30 03:06:21;;;;;;;;;2.80;2.80;;;;;32.65;51.79;98405.34;5034432;28;8984;-69
2021/07/30 03:08:50;;;;;;;;;1.60;1.60;;;;;32.73;50.71;98414.94;5039524;28;8957;-70
2021/07/30 03:11:19;;;;;;;;;2.40;2.40;;;;;32.78;49.56;98416.44;5053931;28;9606;-69
2021/07/30 03:13:47;;;;;;;;;3.80;3.80;;;;;32.81;51.24;98413.63;5054046;28;8862;-69
2021/07/30 03:16:16;;;;;;;;;1.00;1.00;;;;;32.90;50.92;98413.81;5052723;28;8849;-69
2021/07/30 03:18:45;;;;;;;;;1.40;1.40;;;;;32.96;50.47;98412.13;5053098;28;8862;-69
2021/07/30 03:21:13;;;;;;;;;0.80;0.80;;;;;33.03;49.82;98409.22;5052916;28;8858;-68
2021/07/30 03:23:41;;;;;;;;;0.60;0.60;;;;;32.98;49.33;98398.78;5051031;28;8912;-68
2021/07/30 03:26:10;;;;;;;;;2.00;2.00;;;;;33.13;50.07;98407.44;5052906;28;8857;-68
2021/07/30 03:28:39;;;;;;;;;2.00;2.00;;;;;33.20;49.52;98409.25;5051957;28;9563;-68
2021/07/30 03:31:07;;;;;;;;;0.00;0.00;;;;;33.23;48.89;98403.69;5052411;28;8878;-68
2021/07/30 03:33:36;;;;;;;;;1.40;1.40;;;;;33.33;49.19;98407.41;5051713;28;8912;-68
2021/07/30 03:36:05;;;;;;;;;0.80;0.80;;;;;33.38;49.58;98404.16;5052543;28;8850;-68
2021/07/30 03:38:34;;;;;;;;;2.00;2.00;;;;;33.37;49.03;98400.66;5051783;28;8859;-68
2021/07/30 03:41:04;;;;;;;;;2.80;2.80;;;;;33.37;49.35;98394.41;5050863;28;8961;-69
2021/07/30 03:43:33;;;;;;;;;1.00;1.00;;;;;33.41;49.59;98389.63;5052412;28;8877;-69
2021/07/30 03:46:01;;;;;;;;;0.80;0.80;;;;;33.43;49.52;98384.50;5051648;28;8846;-69
2021/07/30 03:48:31;;;;;;;;;2.40;2.40;;;;;33.54;48.69;98397.91;5052312;28;8827;-69
2021/07/30 03:51:00;;;;;;;;;2.80;2.80;;;;;33.61;49.33;98393.03;5054033;28;8936;-69
2021/07/30 03:53:29;;;;;;;;;1.60;1.60;;;;;33.65;49.39;98396.44;5054079;28;8827;-69
2021/07/30 03:55:58;;;;;;;;;1.80;1.80;;;;;33.67;49.18;98394.03;5052089;28;8984;-69
2021/07/30 03:58:26;;;;;;;;;1.80;1.80;;;;;33.61;48.87;98386.78;5051913;28;8846;-70
2021/07/30 04:00:55;;;;;;;;;0.60;0.60;;;;;33.68;48.48;98403.00;5052101;28;8958;-70
2021/07/30 04:03:24;;;;;;;;;1.60;1.60;;;;;33.71;48.99;98399.41;5051263;28;8846;-68
2021/07/30 04:06:15;;;;;;;;;3.80;2.20;;;;;33.70;48.19;98397.88;5053935;28;8799;-69
2021/07/30 04:08:45;;;;;;;;;2.80;2.80;;;;;33.81;49.01;98397.59;5053704;28;8854;-69
2021/07/30 04:11:13;;;;;;;;;2.00;2.00;;;;;33.87;49.27;98406.81;5053678;28;8846;-69
2021/07/30 04:13:43;;;;;;;;;1.40;1.40;;;;;33.95;48.52;98408.19;5053710;28;8957;-69
2021/07/30 04:16:12;;;;;;;;;2.00;1.20;;;;;33.95;48.68;98399.97;5053744;28;8835;-69
2021/07/30 04:18:41;;;;;;;;;1.20;1.20;;;;;34.01;48.52;98390.78;5053682;28;8839;-69
2021/07/30 04:21:10;;;;;;;;;2.00;2.00;;;;;34.04;47.16;98386.44;5053192;28;8865;-68
2021/07/30 04:23:38;;;;;;;;;2.20;2.20;;;;;34.04;48.08;98386.44;5052948;28;8854;-69
2021/07/30 04:26:30;;;;;;;;;0.60;0.60;;;;;34.14;48.14;98390.06;5052096;28;8794;-69
2021/07/30 04:28:59;;;;;;;;;1.00;1.00;;;;;34.18;48.59;98382.53;5052374;28;8986;-69
2021/07/30 04:31:28;;;;;;;;;1.80;1.80;;;;;34.17;47.92;98372.78;5053030;28;8908;-69
2021/07/30 04:33:57;;;;;;;;;1.20;1.20;;;;;34.12;47.26;98354.91;5052693;28;8924;-70
2021/07/30 04:36:25;;;;;;;;;1.00;1.00;;;;;34.33;47.41;98378.97;5052022;28;8965;-69
2021/07/30 04:38:54;;;;;;;;;0.60;0.60;;;;;34.30;47.19;98368.88;5052732;28;8889;-69
2021/07/30 04:41:23;;;;;;;;;2.80;2.80;;;;;34.43;47.71;98368.16;5049959;28;8921;-71
2021/07/30 04:43:51;;;;;;;;;0.80;0.80;;;;;34.47;47.79;98372.34;5048319;28;8830;-70
2021/07/30 04:46:20;;;;;;;;;1.80;1.80;;;;;34.51;46.85;98375.72;5052320;28;8986;-70
2021/07/30 04:48:50;;;;;;;;;0.80;0.80;;;;;34.60;47.43;98377.81;5052136;28;8907;-71
2021/07/30 04:51:18;;;;;;;;;0.60;0.60;;;;;34.65;46.96;98369.84;5052395;28;8885;-71
2021/07/30 04:53:49;;;;;;;;;0.60;0.60;;;;;34.73;47.24;98367.66;5050041;28;9606;-69
2021/07/30 04:56:20;;;;;;;;;1.60;1.60;;;;;34.63;46.53;98344.84;5050229;28;8839;-70
2021/07/30 04:58:51;;;;;;;;;1.00;1.00;;;;;34.77;46.88;98362.06;5049548;28;8841;-71
2021/07/30 05:01:19;;;;;;;;;1.40;1.40;;;;;34.88;45.83;98357.81;5049906;28;8826;-71
2021/07/30 05:03:48;;;;;;;;;1.00;1.00;;;;;34.95;46.57;98363.06;5051367;28;8858;-70
2021/07/30 05:06:22;;;;;;;;;1.80;1.80;;;;;34.97;46.71;98349.69;5038569;28;8936;-70
2021/07/30 05:08:52;;;;;;;;;1.80;1.80;;;;;35.10;46.23;98348.91;5046001;28;8846;-69
2021/07/30 05:11:21;;;;;;;;;1.40;1.40;;;;;35.16;46.33;98358.09;5051255;28;9552;-69
2021/07/30 05:13:50;;;;;;;;;0.80;0.80;;;;;35.25;46.83;98344.47;5050699;28;9402;-70
2021/07/30 05:16:41;;;;;;;;;1.60;1.60;;;;;35.27;45.39;98337.34;5048526;28;8795;-69
2021/07/30 05:19:11;;;;;;;;;1.00;1.00;;;;;35.35;45.84;98348.09;5050628;28;8842;-70
2021/07/30 05:21:39;;;;;;;;;1.60;1.60;;;;;35.34;45.68;98341.84;5048239;28;8839;-70
2021/07/30 05:24:08;;;;;;;;;1.40;1.40;;;;;35.37;44.83;98340.19;5050503;28;8839;-70
2021/07/30 05:26:36;;;;;;;;;1.80;1.80;;;;;35.39;46.96;98346.75;5051040;28;9637;-69
2021/07/30 05:29:08;;;;;;;;;0.80;0.80;;;;;35.36;46.24;98342.16;5050496;28;8835;-71
2021/07/30 05:31:38;;;;;;;;;1.80;1.80;;;;;35.40;44.96;98331.84;5049629;28;8843;-72
2021/07/30 05:34:06;;;;;;;;;1.60;1.60;;;;;35.45;45.58;98325.78;5049292;28;8949;-71
2021/07/30 05:36:36;;;;;;;;;2.40;2.40;;;;;35.53;45.47;98332.56;5048908;28;8892;-72
2021/07/30 05:39:05;;;;;;;;;1.20;1.20;;;;;35.63;45.88;98316.94;5051505;28;8846;-72
2021/07/30 05:41:33;;;;;;;;;2.60;2.60;;;;;35.69;46.48;98317.91;5051329;28;8861;-71
2021/07/30 05:44:02;;;;;;;;;1.20;1.20;;;;;35.73;45.33;98320.53;5051696;28;8931;-71
2021/07/30 05:46:31;;;;;;;;;2.80;2.80;;;;;35.75;45.69;98315.34;5051805;28;8838;-71
2021/07/30 05:49:00;;;;;;;;;1.20;1.20;;;;;35.68;45.27;98294.44;5051608;28;8847;-72
2021/07/30 05:51:37;;;;;;;;;1.60;1.60;;;;;35.78;45.15;98307.00;5051469;28;8884;-71
2021/07/30 05:54:06;;;;;;;;;1.60;1.60;;;;;35.69;45.79;98295.19;5051344;28;9722;-71
2021/07/30 05:56:35;;;;;;;;;2.60;2.60;;;;;35.82;44.87;98301.41;5051329;28;8997;-70
2021/07/30 05:59:04;;;;;;;;;1.40;1.40;;;;;35.93;46.35;98304.53;5051123;28;8977;-71
2021/07/30 06:01:32;;;;;;;;;3.40;3.40;;;;;35.95;44.68;98310.34;5051529;28;8835;-71
2021/07/30 06:04:02;;;;;;;;;2.00;2.00;;;;;35.96;46.16;98292.66;5050206;28;8858;-70
2021/07/30 06:06:32;;;;;;;;;2.00;2.00;;;;;35.86;45.20;98286.34;5050194;28;9710;-71
2021/07/30 06:09:00;;;;;;;;;1.20;1.20;;;;;35.86;45.42;98294.59;5051281;28;8916;-71
2021/07/30 06:11:29;;;;;;;;;1.80;1.80;;;;;35.76;45.72;98292.19;5051643;28;8867;-71
2021/07/30 06:14:20;;;;;;;;;2.00;2.00;;;;;35.74;46.00;98294.63;5063560;28;8798;-71
2021/07/30 06:16:49;;;;;;;;;2.40;2.40;;;;;35.70;45.96;98292.00;5051485;28;9047;-72
2021/07/30 06:19:18;;;;;;;;;3.00;3.00;;;;;35.69;46.04;98287.72;5051645;28;8912;-71
2021/07/30 06:21:46;;;;;;;;;1.60;1.60;;;;;35.66;45.88;98291.38;5051827;28;8855;-72
2021/07/30 06:24:14;;;;;;;;;2.40;2.40;;;;;35.70;45.40;98283.78;5054878;28;8861;-69
2021/07/30 06:26:43;;;;;;;;;1.80;1.80;;;;;35.56;45.51;98251.34;5055643;28;8838;-69
2021/07/30 06:29:11;;;;;;;;;1.80;1.80;;;;;35.73;45.45;98276.63;5055610;28;8997;-69
2021/07/30 06:31:44;;;;;;;;;1.80;1.80;;;;;35.74;45.45;98269.91;5055885;28;8846;-69
2021/07/30 06:34:12;;;;;;;;;1.60;1.60;;;;;35.72;46.11;98275.84;5055964;28;8835;-69
2021/07/30 06:36:41;;;;;;;;;2.40;2.40;;;;;35.66;45.83;98276.88;5055575;28;8957;-69
2021/07/30 06:39:09;;;;;;;;;2.80;2.80;;;;;35.61;46.58;98270.75;5055551;28;8935;-69
2021/07/30 06:41:38;;;;;;;;;2.60;2.60;;;;;35.50;45.92;98264.88;5054216;28;8997;-69
2021/07/30 06:44:09;;;;;;;;;1.60;1.60;;;;;35.53;45.65;98265.97;5055531;28;8915;-69
2021/07/30 06:46:38;;;;;;;;;2.20;2.20;;;;;35.50;46.31;98270.38;5054896;28;8921;-69
2021/07/30 06:49:07;;;;;;;;;3.00;3.00;;;;;35.26;46.10;98245.31;5055443;28;9097;-70
2021/07/30 06:51:36;;;;;;;;;1.60;1.60;;;;;35.24;47.16;98255.19;5055177;28;8899;-70
2021/07/30 06:54:05;;;;;;;;;1.20;1.20;;;;;35.06;47.36;98255.06;5055515;28;8911;-68
2021/07/30 06:56:34;;;;;;;;;4.00;4.00;;;;;34.80;47.90;98262.53;5055072;28;8843;-69
2021/07/30 06:59:02;;;;;;;;;5.00;5.00;;;;;34.56;48.21;98245.69;5055209;28;8858;-70
2021/07/30 07:01:31;;;;;;;;;4.80;4.80;;;;;34.41;48.60;98250.84;5054003;28;8865;-68
2021/07/30 07:04:00;;;;;;;;;2.00;2.00;;;;;34.29;49.15;98241.38;5054480;28;9607;-69
2021/07/30 07:06:30;;;;;;;;;3.40;3.40;;;;;34.23;49.68;98253.31;5054084;28;8866;-72
2021/07/30 07:08:58;;;;;;;;;3.80;3.80;;;;;34.25;50.29;98311.16;5055229;28;8838;-69
2021/07/30 07:11:27;;;;;;;;;3.00;3.00;;;;;33.97;48.94;98236.09;5067675;28;8828;-69
2021/07/30 07:13:57;;;;;;;;;1.80;1.80;;;;;33.81;49.68;98233.44;5053915;28;8842;-70
2021/07/30 07:16:27;;;;;;;;;1.00;1.00;;;;;33.39;50.30;98214.28;5054384;28;9714;-70
2021/07/30 07:18:57;;;;;;;;;0.80;0.80;;;;;33.20;51.03;98220.63;5054303;28;9587;-70
2021/07/30 07:21:25;;;;;;;;;1.00;1.00;;;;;33.07;50.57;98226.81;5054521;28;8838;-70
2021/07/30 07:23:54;;;;;;;;;0.00;0.00;;;;;32.82;52.88;98187.66;5054721;28;8838;-71
2021/07/30 07:26:23;;;;;;;;;0.80;0.80;;;;;32.93;52.36;98207.28;5055149;28;8842;-69
2021/07/30 07:28:51;;;;;;;;;1.00;1.00;;;;;32.96;52.21;98200.97;5054606;28;8838;-69
2021/07/30 07:31:19;;;;;;;;;1.40;1.40;;;;;32.97;52.73;98195.06;5054552;28;8854;-71
2021/07/30 07:33:49;;;;;;;;;1.00;1.00;;;;;33.03;53.04;98181.66;5053106;28;8866;-71
2021/07/30 07:36:17;;;;;;;;;1.80;1.80;;;;;33.17;52.28;98180.50;5053236;28;8831;-71
2021/07/30 07:38:46;;;;;;;;;0.60;0.60;;;;;33.24;53.10;98175.63;5051519;28;8834;-70
2021/07/30 07:41:15;;;;;;;;;1.00;1.00;;;;;33.44;53.53;98178.22;5054737;28;9588;-71
2021/07/30 07:43:44;;;;;;;;;1.00;1.00;;;;;33.67;52.19;98172.47;5053107;28;8842;-71
2021/07/30 07:46:13;;;;;;;;;1.00;1.00;;;;;33.85;51.60;98168.44;5054255;28;8831;-71
2021/07/30 07:48:41;;;;;;;;;2.00;2.00;;;;;33.94;51.26;98143.94;5053263;28;8838;-70
2021/07/30 07:51:10;;;;;;;;;2.00;2.00;;;;;34.12;51.37;98148.88;5054228;28;8839;-71
2021/07/30 07:53:38;;;;;;;;;0.40;0.40;;;;;34.41;52.19;98160.47;5054119;28;8846;-70
2021/07/30 07:56:08;;;;;;;;;1.00;1.00;;;;;34.52;50.14;98158.16;5053974;28;8843;-70
2021/07/30 07:58:36;;;;;;;;;1.20;1.20;;;;;34.73;50.20;98164.91;5053595;28;8838;-71
2021/07/30 08:01:05;;;;;;;;;0.80;0.80;;;;;34.85;50.40;98158.63;5053625;28;8850;-72
2021/07/30 08:03:33;;;;;;;;;1.00;1.00;;;;;34.93;50.20;98151.69;5054243;28;8842;-71
2021/07/30 08:06:03;;;;;;;;;1.60;1.60;;;;;34.97;49.94;98154.31;5054038;28;8891;-71
2021/07/30 08:08:31;;;;;;;;;1.40;1.40;;;;;34.93;49.64;98170.88;5053667;28;8855;-70
2021/07/30 08:11:03;;;;;;;;;1.80;1.80;;;;;34.78;48.97;98163.56;5053835;28;9601;-70
2021/07/30 08:13:32;;;;;;;;;0.20;0.20;;;;;34.54;49.74;98176.88;5053959;28;8831;-71
2021/07/30 08:16:01;;;;;;;;;0.80;0.80;;;;;34.07;49.37;98190.47;5053869;28;9578;-71
2021/07/30 08:18:32;;;;;;;;;0.00;0.00;;;;;33.44;49.76;98180.19;5053759;28;8920;-70
2021/07/30 08:21:00;;;;;;;;;0.00;0.00;;;;;32.85;51.16;98162.97;5053134;28;8851;-70
2021/07/30 08:23:29;;;;;;;;;0.00;0.00;;;;;32.21;51.32;98178.16;5053765;28;8830;-70
2021/07/30 08:25:59;;;;;;;;;0.00;0.00;;;;;31.89;52.13;98183.56;5053276;28;8830;-70
2021/07/30 08:28:28;;;;;;;;;0.00;0.00;;;;;31.60;52.88;98184.13;5053646;28;8834;-70
2021/07/30 08:30:56;;;;;;;;;0.00;0.00;;;;;31.37;53.63;98179.53;5052807;28;8961;-70
2021/07/30 08:33:25;;;;;;;;;0.00;0.00;;;;;31.13;53.55;98162.47;5053365;28;8873;-70
2021/07/30 08:35:54;;;;;;;;;0.40;0.40;;;;;31.09;55.95;98180.06;5053546;28;8822;-71
2021/07/30 08:38:22;;;;;;;;;0.00;0.00;;;;;30.98;54.97;98172.06;5053167;28;8830;-70
2021/07/30 08:40:51;;;;;;;;;0.00;0.00;;;;;31.00;55.14;98180.59;5052609;28;8924;-68
2021/07/30 08:43:20;;;;;;;;;0.00;0.00;;;;;31.06;55.32;98189.81;5053195;28;8857;-69
2021/07/30 08:45:50;;;;;;;;;0.00;0.00;;;;;31.09;54.20;98177.31;5051753;28;9627;-69
2021/07/30 08:48:19;;;;;;;;;0.80;0.80;;;;;31.09;56.21;98167.19;5052992;28;8939;-70
2021/07/30 08:50:50;;;;;;;;;0.00;0.00;;;;;30.91;55.94;98111.50;5052352;28;8867;-71
2021/07/30 08:53:26;;;;;;;;;0.00;0.00;;;;;31.07;56.36;98144.28;5053044;28;8850;-70
2021/07/30 08:55:55;;;;;;;;;0.00;0.00;;;;;31.08;56.82;98151.28;5053102;28;8945;-70
2021/07/30 08:58:23;;;;;;;;;0.00;0.00;;;;;31.16;57.83;98154.66;5052941;28;8924;-71
2021/07/30 09:00:52;;;;;;;;;0.60;0.60;;;;;31.22;57.47;98148.28;5052950;28;8866;-70
2021/07/30 09:03:21;;;;;;;;;0.60;0.60;;;;;31.12;57.46;98108.38;5052876;28;8839;-69
2021/07/30 09:05:50;;;;;;;;;0.00;0.00;;;;;31.36;57.92;98133.59;5052853;28;8862;-69
2021/07/30 09:08:24;;;;;;;;;0.00;0.00;;;;;31.39;57.95;98122.63;5052830;28;8850;-69
2021/07/30 09:10:53;;;;;;;;;1.00;1.00;;;;;31.36;59.01;98100.91;5052824;28;8846;-69
2021/07/30 09:13:27;;;;;;;;;1.40;1.40;;;;;31.37;58.77;98094.25;5052752;28;8854;-69
2021/07/30 09:16:08;;;;;;;;;0.60;0.60;;;;;31.40;57.83;98090.69;5052662;28;8846;-69
2021/07/30 09:18:40;;;;;;;;;0.20;0.20;;;;;31.41;58.41;98086.78;5052671;28;8851;-69
2021/07/30 09:21:18;;;;;;;;;0.20;0.20;;;;;31.45;58.55;98103.81;5052619;28;8861;-68
2021/07/30 09:24:12;;;;;;;;;0.00;0.00;;;;;31.51;58.46;98120.47;5052648;28;8847;-69
2021/07/30 09:26:57;;;;;;;;;0.00;0.00;;;;;31.56;57.95;98128.13;5052745;28;8838;-69
2021/07/30 09:29:31;;;;;;;;;1.00;1.00;;;;;31.57;57.59;98114.09;5052440;28;9551;-69
2021/07/30 09:32:09;;;;;;;;;0.20;0.20;;;;;31.53;59.84;98102.50;5052464;28;8878;-69
2021/07/30 09:34:41;;;;;;;;;0.00;0.00;;;;;31.53;57.56;98099.75;5052468;28;8839;-68
2021/07/30 09:37:17;;;;;;;;;0.00;0.00;;;;;31.54;57.41;98092.34;5052395;28;8893;-69
2021/07/30 09:39:49;;;;;;;;;0.00;0.00;;;;;31.47;57.41;98074.97;5052341;28;8854;-69
2021/07/30 09:42:36;;;;;;;;;0.00;0.00;;;;;31.43;58.56;98077.00;5052324;28;8949;-69
2021/07/30 09:45:13;;;;;;;;;0.00;0.00;;;;;31.39;58.95;98075.53;5052217;28;8838;-69
2021/07/30 09:47:51;;;;;;;;;0.40;0.40;;;;;31.37;58.21;98073.22;5052049;28;8862;-69
2021/07/30 09:50:20;;;;;;;;;0.00;0.00;;;;;31.37;58.94;98078.69;5052187;28;8870;-69
2021/07/30 09:52:53;;;;;;;;;0.00;0.00;;;;;31.38;58.95;98063.09;5052365;28;8843;-69
2021/07/30 09:55:24;;;;;;;;;0.60;0.60;;;;;31.37;59.40;98070.50;5051095;28;8838;-68
2021/07/30 09:57:55;;;;;;;;;0.00;0.00;;;;;31.33;57.34;98082.66;5051643;28;8838;-69
2021/07/30 10:00:24;;;;;;;;;1.00;1.00;;;;;31.24;60.12;98091.41;5052296;28;8842;-69
2021/07/30 10:02:53;;;;;;;;;0.00;0.00;;;;;31.20;57.40;98089.97;5052119;28;8850;-69
2021/07/30 10:05:23;;;;;;;;;0.80;0.80;;;;;31.21;59.83;98102.38;5051899;28;8842;-69
2021/07/30 10:07:53;;;;;;;;;2.20;2.20;;;;;31.18;59.07;98095.06;5050766;28;8910;-69
2021/07/30 10:10:25;;;;;;;;;0.60;0.60;;;;;31.16;58.11;98106.38;5052030;28;8853;-69
2021/07/30 10:12:55;;;;;;;;;1.00;1.00;;;;;31.16;59.03;98111.06;5051961;28;9642;-69
2021/07/30 10:15:24;;;;;;;;;0.60;0.60;;;;;31.04;58.04;98112.44;5051965;28;8858;-69
2021/07/30 10:17:58;;;;;;;;;2.00;2.00;;;;;31.09;58.60;98114.66;5051861;28;8874;-69
2021/07/30 10:20:27;;;;;;;;;0.80;0.80;;;;;31.04;58.74;98105.03;5051936;28;8850;-69
2021/07/30 10:23:03;;;;;;;;;0.00;0.00;;;;;31.13;58.24;98118.09;5051894;28;8846;-68
2021/07/30 10:25:36;;;;;;;;;1.40;1.40;;;;;31.15;58.89;98132.09;5052038;28;8826;-69
2021/07/30 10:28:15;;;;;;;;;1.00;1.00;;;;;31.17;59.26;98121.53;5051717;28;8849;-69
2021/07/30 10:30:58;;;;;;;;;1.00;1.00;;;;;31.17;58.85;98126.22;5051879;28;8865;-69
2021/07/30 10:33:34;;;;;;;;;1.00;1.00;;;;;31.16;59.22;98127.41;5051782;28;8925;-68
2021/07/30 10:36:15;;;;;;;;;0.80;0.80;;;;;31.13;59.11;98142.63;5051791;28;8839;-69
2021/07/30 10:39:15;;;;;;;;;0.00;0.00;;;;;31.13;59.37;98137.16;5051745;28;8842;-69
2021/07/30 10:42:12;;;;;;;;;1.80;1.80;;;;;31.12;60.29;98181.94;5050453;28;8831;-69
2021/07/30 10:45:04;;;;;;;;;2.20;2.20;;;;;30.98;58.61;98228.50;5051578;28;8883;-69
2021/07/30 10:47:33;;;;;;;;;0.60;0.60;;;;;30.50;59.08;98230.41;5051704;28;8866;-70
2021/07/30 10:50:02;;;;;;;;;1.60;1.60;;;;;30.16;59.49;98235.94;5052254;28;8854;-71
2021/07/30 10:52:31;;;;;;;;;0.00;0.00;;;;;29.92;60.37;98217.19;5051943;28;8866;-70
2021/07/30 10:54:59;;;;;;;;;2.00;2.00;;;;;29.85;60.33;98213.41;5051863;28;8869;-71
2021/07/30 10:57:51;;;;;;;;;1.60;1.60;;;;;29.84;59.53;98219.25;5051938;28;8902;-71
2021/07/30 11:00:19;;;;;;;;;1.80;1.80;;;;;29.81;62.38;98226.28;5051650;28;8912;-71
2021/07/30 11:03:01;;;;;;;;;0.20;0.20;;;;;29.70;58.99;98220.22;5052151;28;8842;-71
2021/07/30 11:05:30;;;;;;;;;0.40;0.40;;;;;29.41;59.02;98208.84;5051672;28;8850;-70
2021/07/30 11:08:01;;;;;;;;;0.00;0.00;;;;;29.43;58.68;98211.19;5051860;28;8842;-70
2021/07/30 11:10:30;;;;;;;;;0.00;0.00;;;;;29.36;58.90;98219.41;5055381;28;8945;-71
2021/07/30 11:13:01;;;;;;;;;0.00;0.00;;;;;29.28;58.81;98218.69;5055018;28;8835;-70
2021/07/30 11:15:33;;;;;;;;;0.00;0.00;;;;;29.29;58.68;98216.75;5055138;28;8865;-70
2021/07/30 11:18:02;;;;;;;;;0.20;0.20;;;;;29.23;58.60;98214.47;5053822;28;9025;-70
2021/07/30 11:20:33;;;;;;;;;0.60;0.60;;;;;29.26;58.69;98223.00;5054941;28;8827;-70
2021/07/30 11:23:04;;;;;;;;;1.00;1.00;;;;;29.26;58.51;98240.06;5055173;28;8858;-70
2021/07/30 11:25:32;;;;;;;;;0.00;0.00;;;;;29.18;58.89;98225.00;5055032;28;8835;-70
2021/07/30 11:28:03;;;;;;;;;0.00;0.00;;;;;29.15;58.85;98220.38;5055382;28;8984;-70
2021/07/30 11:30:31;;;;;;;;;1.00;1.00;;;;;29.16;58.82;98224.66;5054747;28;9646;-70
2021/07/30 11:33:00;;;;;;;;;0.80;0.80;;;;;29.12;59.11;98221.97;5054781;28;8897;-70
2021/07/30 11:35:29;;;;;;;;;1.00;1.00;;;;;29.03;59.43;98204.59;5054602;28;8857;-70
2021/07/30 11:38:01;;;;;;;;;0.00;0.00;;;;;29.11;60.02;98211.50;5054592;28;8960;-71
2021/07/30 11:40:31;;;;;;;;;0.00;0.00;;;;;29.13;59.64;98206.44;5054621;28;8875;-70
2021/07/30 11:43:08;;;;;;;;;0.25;0.25;;;;;29.13;61.39;98206.44;5054501;28;8851;-70
2021/07/30 11:45:38;;;;;;;;;0.20;0.20;;;;;29.25;61.09;98218.75;5054494;28;8865;-70
2021/07/30 11:48:11;;;;;;;;;0.25;0.25;;;;;29.30;60.44;98215.59;5054249;28;9634;-70
2021/07/30 11:50:40;;;;;;;;;0.00;0.00;;;;;29.29;60.78;98208.59;5054624;28;8920;-70
2021/07/30 11:53:09;;;;;;;;;0.00;0.00;;;;;29.36;61.04;98222.88;5054376;28;8865;-70
2021/07/30 11:55:38;;;;;;;;;0.75;0.75;;;;;29.33;59.85;98222.94;5054586;28;8931;-71
2021/07/30 11:58:11;;;;;;;;;1.00;1.00;;;;;29.29;60.96;98220.25;5054266;28;8962;-70
2021/07/30 12:00:39;;;;;;;;;2.50;1.25;;;;;29.36;61.27;98250.06;5054243;28;8863;-70
2021/07/30 12:03:22;;;;;;;;;1.25;0.75;;;;;29.42;61.13;98264.78;5054121;28;8857;-70